createdAt,value
2023-04-24T00:02:13.336Z,0.60
2023-04-24T00:04:42.793Z,0.70
2023-04-24T00:07:11.250Z,0.50
2023-04-24T00:09:39.327Z,0.60
2023-04-24T00:12:07.414Z,0.43
2023-04-24T00:14:35.411Z,0.50
2023-04-24T00:17:04.795Z,0.50
2023-04-24T00:19:33.095Z,0.60
2023-04-24T00:22:01.027Z,0.60
2023-04-24T00:24:28.982Z,0.43
2023-04-24T00:26:57.008Z,0.50
2023-04-24T00:29:25.067Z,0.50
2023-04-24T00:31:53.326Z,0.53
2023-04-24T00:34:21.357Z,0.60
2023-04-24T00:36:51.333Z,0.53
2023-04-24T00:39:19.342Z,0.40
2023-04-24T00:41:47.854Z,0.53
2023-04-24T00:44:16.018Z,0.60
2023-04-24T00:46:44.059Z,0.80
2023-04-24T00:49:12.171Z,0.50
2023-04-24T00:51:40.123Z,0.50
2023-04-24T00:54:08.070Z,0.60
2023-04-24T00:56:36.317Z,0.60
2023-04-24T00:59:04.223Z,0.50
2023-04-24T01:01:32.927Z,0.80
2023-04-24T01:04:01.103Z,0.53
2023-04-24T01:06:33.445Z,0.60
2023-04-24T01:09:01.799Z,0.50
2023-04-24T01:11:29.746Z,0.50
2023-04-24T01:13:57.800Z,0.50
2023-04-24T01:16:25.861Z,0.47
2023-04-24T01:18:53.873Z,0.40
2023-04-24T01:21:22.249Z,0.40
2023-04-24T01:23:50.302Z,0.30
2023-04-24T01:26:19.150Z,0.43
2023-04-24T01:28:47.095Z,0.40
2023-04-24T01:31:15.178Z,0.53
2023-04-24T01:33:44.199Z,0.40
2023-04-24T01:36:13.344Z,0.40
2023-04-24T01:38:41.499Z,0.30
2023-04-24T01:41:09.520Z,0.20
2023-04-24T01:43:37.548Z,0.20
2023-04-24T01:46:05.554Z,0.30
2023-04-24T01:48:33.774Z,0.10
2023-04-24T01:51:01.829Z,0.30
2023-04-24T01:53:29.838Z,0.20
2023-04-24T01:55:57.908Z,0.37
2023-04-24T01:58:25.823Z,0.23
2023-04-24T02:00:53.874Z,0.30
2023-04-24T02:03:22.076Z,0.30
2023-04-24T02:05:50.200Z,0.20
2023-04-24T02:08:18.147Z,0.27
2023-04-24T02:10:46.554Z,0.30
2023-04-24T02:13:14.566Z,0.30
2023-04-24T02:15:42.667Z,0.30
2023-04-24T02:18:10.892Z,0.10
2023-04-24T02:20:39.194Z,0.40
2023-04-24T02:23:07.422Z,0.60
2023-04-24T02:25:35.845Z,0.30
2023-04-24T02:28:04.669Z,0.20
2023-04-24T02:30:32.928Z,0.30
2023-04-24T02:33:00.819Z,0.47
2023-04-24T02:35:28.970Z,0.13
2023-04-24T02:37:57.005Z,0.30
2023-04-24T02:40:24.949Z,0.20
2023-04-24T02:42:52.868Z,0.20
2023-04-24T02:45:20.938Z,0.30
2023-04-24T02:47:48.957Z,0.10
2023-04-24T02:50:17.204Z,0.20
2023-04-24T02:52:45.292Z,0.20
2023-04-24T02:55:13.368Z,0.23
2023-04-24T02:57:41.379Z,0.30
2023-04-24T03:00:09.812Z,0.30
2023-04-24T03:02:37.910Z,0.20
2023-04-24T03:05:06.832Z,0.20
2023-04-24T03:07:34.805Z,0.20
2023-04-24T03:10:02.853Z,0.27
2023-04-24T03:12:30.878Z,0.10
2023-04-24T03:14:58.901Z,0.10
2023-04-24T03:17:26.933Z,0.10
2023-04-24T03:19:54.842Z,0.20
2023-04-24T03:22:22.846Z,0.10
2023-04-24T03:24:50.851Z,0.10
2023-04-24T03:27:18.767Z,0.10
2023-04-24T03:29:46.837Z,0.17
2023-04-24T03:32:14.840Z,0.37
2023-04-24T03:34:42.862Z,0.20
2023-04-24T03:37:10.777Z,0.20
2023-04-24T03:39:38.772Z,0.10
2023-04-24T03:42:06.957Z,0.10
2023-04-24T03:44:34.947Z,0.30
2023-04-24T03:47:02.957Z,0.00
2023-04-24T03:49:30.923Z,0.10
2023-04-24T03:51:58.817Z,0.13
2023-04-24T03:54:26.792Z,0.10
2023-04-24T03:56:54.711Z,0.23
2023-04-24T03:59:22.740Z,0.10
2023-04-24T04:01:50.821Z,0.10
2023-04-24T04:04:18.999Z,0.20
2023-04-24T04:06:47.110Z,0.10
2023-04-24T04:09:15.152Z,0.13
2023-04-24T04:11:43.103Z,0.20
2023-04-24T04:14:11.049Z,0.17
2023-04-24T04:16:39.055Z,0.10
2023-04-24T04:19:07.914Z,0.03
2023-04-24T04:21:35.855Z,0.30
2023-04-24T04:24:03.839Z,0.10
2023-04-24T04:26:34.993Z,0.10
2023-04-24T04:29:03.341Z,0.10
2023-04-24T04:31:31.841Z,0.20
2023-04-24T04:33:59.919Z,0.10
2023-04-24T04:36:28.335Z,0.20
2023-04-24T04:38:57.007Z,0.20
2023-04-24T04:41:25.231Z,0.30
2023-04-24T04:43:53.155Z,0.13
2023-04-24T04:46:21.234Z,0.30
2023-04-24T04:48:49.218Z,0.20
2023-04-24T04:51:17.191Z,0.37
2023-04-24T04:53:45.257Z,0.13
2023-04-24T04:56:13.237Z,0.20
2023-04-24T04:58:41.270Z,0.20
2023-04-24T05:01:09.478Z,0.77
2023-04-24T05:03:38.561Z,0.20
2023-04-24T05:06:07.003Z,0.40
2023-04-24T05:08:35.182Z,0.30
2023-04-24T05:11:03.459Z,0.20
2023-04-24T05:13:39.084Z,0.10
2023-04-24T05:16:09.477Z,0.20
2023-04-24T05:18:37.623Z,0.30
2023-04-24T05:21:05.738Z,0.30
2023-04-24T05:23:33.772Z,0.20
2023-04-24T05:26:01.820Z,0.30
2023-04-24T05:28:30.642Z,0.20
2023-04-24T05:30:58.962Z,0.20
2023-04-24T05:33:27.183Z,0.63
2023-04-24T05:35:55.247Z,0.50
2023-04-24T05:38:23.469Z,0.33
2023-04-24T05:40:51.540Z,0.20
2023-04-24T05:43:19.859Z,0.20
2023-04-24T05:45:48.262Z,0.20
2023-04-24T05:48:16.363Z,0.20
2023-04-24T05:50:44.598Z,0.20
2023-04-24T05:53:12.926Z,0.40
2023-04-24T05:55:41.123Z,0.20
2023-04-24T05:58:09.086Z,0.37
2023-04-24T06:00:37.840Z,0.20
2023-04-24T06:03:06.180Z,0.30
2023-04-24T06:05:34.455Z,0.20
2023-04-24T06:08:02.474Z,0.40
2023-04-24T06:10:30.571Z,0.13
2023-04-24T06:13:02.538Z,0.40
2023-04-24T06:15:32.658Z,0.57
2023-04-24T06:18:01.157Z,0.30
2023-04-24T06:20:29.316Z,0.37
2023-04-24T06:22:57.406Z,0.47
2023-04-24T06:25:28.012Z,0.50
2023-04-24T06:30:24.061Z,0.50
2023-04-24T06:32:52.369Z,0.50
2023-04-24T06:35:20.552Z,0.70
2023-04-24T06:37:48.641Z,0.60
2023-04-24T06:40:16.859Z,0.60
2023-04-24T06:42:45.069Z,0.83
2023-04-24T06:45:13.612Z,0.67
2023-04-24T06:47:41.797Z,0.80
2023-04-24T06:50:10.217Z,0.70
2023-04-24T06:52:38.317Z,0.80
2023-04-24T06:55:06.822Z,0.80
2023-04-24T06:57:35.272Z,0.80
2023-04-24T07:00:03.464Z,0.70
2023-04-24T07:02:31.513Z,0.87
2023-04-24T07:04:59.599Z,0.70
2023-04-24T07:07:27.649Z,1.00
2023-04-24T07:09:56.494Z,1.03
2023-04-24T07:12:24.592Z,0.73
2023-04-24T07:14:53.129Z,0.73
2023-04-24T07:17:21.132Z,1.17
2023-04-24T07:19:49.157Z,1.00
2023-04-24T07:22:19.253Z,1.07
2023-04-24T07:24:47.389Z,1.10
2023-04-24T07:27:17.120Z,0.77
2023-04-24T07:29:45.803Z,1.13
2023-04-24T07:32:14.074Z,0.90
2023-04-24T07:34:42.385Z,0.80
2023-04-24T07:37:10.399Z,0.87
2023-04-24T07:39:38.461Z,0.90
2023-04-24T07:42:06.766Z,1.17
2023-04-24T07:44:34.951Z,1.13
2023-04-24T07:47:02.885Z,0.90
2023-04-24T07:49:30.875Z,0.80
2023-04-24T07:51:58.856Z,0.90
2023-04-24T07:54:26.969Z,0.90
2023-04-24T07:56:54.904Z,0.97
2023-04-24T07:59:22.870Z,0.90
2023-04-24T08:01:50.838Z,1.10
2023-04-24T08:04:20.292Z,0.97
2023-04-24T08:06:49.885Z,0.80
2023-04-24T08:09:17.786Z,1.10
2023-04-24T08:11:46.187Z,0.90
2023-04-24T08:14:15.630Z,0.80
2023-04-24T08:16:44.262Z,0.70
2023-04-24T08:19:12.503Z,0.70
2023-04-24T08:21:40.619Z,0.70
2023-04-24T08:24:10.370Z,0.63
2023-04-24T08:26:38.584Z,0.80
2023-04-24T08:29:08.447Z,0.60
2023-04-24T08:31:36.890Z,0.70
2023-04-24T08:34:04.945Z,0.80
2023-04-24T08:36:43.411Z,0.90
2023-04-24T08:39:14.347Z,1.33
2023-04-24T08:41:45.193Z,0.80
2023-04-24T08:44:13.313Z,0.80
2023-04-24T08:46:42.340Z,0.77
2023-04-24T08:49:10.554Z,0.77
2023-04-24T08:51:39.432Z,0.63
2023-04-24T08:54:07.659Z,0.70
2023-04-24T08:56:36.396Z,0.80
2023-04-24T08:59:04.399Z,0.90
2023-04-24T09:01:32.469Z,0.90
2023-04-24T09:04:00.720Z,0.80
2023-04-24T09:06:29.519Z,0.70
2023-04-24T09:08:58.864Z,0.70
2023-04-24T09:11:27.264Z,0.70
2023-04-24T09:13:56.144Z,0.83
2023-04-24T09:16:26.499Z,0.70
2023-04-24T09:18:54.632Z,0.90
2023-04-24T09:21:23.576Z,0.77
2023-04-24T09:24:02.108Z,0.60
2023-04-24T09:26:35.113Z,1.03
2023-04-24T09:29:03.288Z,1.00
2023-04-24T09:31:31.955Z,0.70
2023-04-24T09:34:02.092Z,0.90
2023-04-24T09:36:40.089Z,0.80
2023-04-24T09:39:10.623Z,0.73
2023-04-24T09:41:41.189Z,1.10
2023-04-24T09:44:19.472Z,0.90
2023-04-24T09:46:51.174Z,0.93
2023-04-24T09:49:22.570Z,0.90
2023-04-24T09:51:50.545Z,0.90
2023-04-24T09:54:27.116Z,0.70
2023-04-24T09:56:55.103Z,0.80
2023-04-24T09:59:23.207Z,1.30
2023-04-24T10:01:53.126Z,0.95
2023-04-24T10:04:26.580Z,0.90
2023-04-24T10:06:56.278Z,0.90
2023-04-24T10:09:28.514Z,0.93
2023-04-24T10:11:57.055Z,1.00
2023-04-24T10:14:26.581Z,0.75
2023-04-24T10:16:59.997Z,1.02
2023-04-24T10:19:28.366Z,1.10
2023-04-24T10:21:57.955Z,1.10
2023-04-24T10:24:25.997Z,0.95
2023-04-24T10:26:54.040Z,1.10
2023-04-24T10:29:23.788Z,1.00
2023-04-24T10:31:51.931Z,0.80
2023-04-24T10:34:20.233Z,0.98
2023-04-24T10:36:50.491Z,0.95
2023-04-24T10:39:18.470Z,0.88
2023-04-24T10:41:47.202Z,1.10
2023-04-24T10:44:16.831Z,0.85
2023-04-24T10:46:50.613Z,1.02
2023-04-24T10:49:18.581Z,0.80
2023-04-24T10:51:55.226Z,0.80
2023-04-24T10:54:47.240Z,0.93
2023-04-24T10:57:21.998Z,1.10
2023-04-24T10:59:51.109Z,0.93
2023-04-24T11:02:19.877Z,0.98
2023-04-24T11:04:48.563Z,0.90
2023-04-24T11:07:17.161Z,0.80
2023-04-24T11:09:45.483Z,1.00
2023-04-24T11:12:15.108Z,0.75
2023-04-24T11:14:58.867Z,1.00
2023-04-24T11:17:43.187Z,0.80
2023-04-24T11:20:26.962Z,0.90
2023-04-24T11:22:57.038Z,1.17
2023-04-24T11:25:25.200Z,0.98
2023-04-24T11:27:53.185Z,0.80
2023-04-24T11:30:22.345Z,0.95
2023-04-24T11:32:52.188Z,0.93
2023-04-24T11:35:22.637Z,0.98
2023-04-24T11:40:25.339Z,0.80
2023-04-24T11:42:53.940Z,0.90
2023-04-24T11:45:28.364Z,0.75
2023-04-24T11:47:56.414Z,1.00
2023-04-24T11:50:25.549Z,0.70
2023-04-24T11:52:53.554Z,0.90
2023-04-24T11:55:21.652Z,1.10
2023-04-24T11:57:51.071Z,0.85
2023-04-24T12:00:21.039Z,1.00
2023-04-24T12:02:49.703Z,1.02
2023-04-24T12:05:28.925Z,1.02
2023-04-24T12:07:57.358Z,1.10
2023-04-24T12:10:30.488Z,1.60
2023-04-24T12:12:59.278Z,0.90
2023-04-24T12:15:27.512Z,0.80
2023-04-24T12:17:56.147Z,1.00
2023-04-24T12:20:32.473Z,0.80
2023-04-24T12:23:03.812Z,0.93
2023-04-24T12:25:34.104Z,1.20
2023-04-24T12:28:05.461Z,0.77
2023-04-24T12:30:37.764Z,0.73
2023-04-24T12:33:05.881Z,1.00
2023-04-24T12:35:35.726Z,0.85
2023-04-24T12:38:16.291Z,0.90
2023-04-24T12:40:45.030Z,0.95
2023-04-24T12:43:22.284Z,3.45
2023-04-24T12:45:50.403Z,3.30
2023-04-24T12:48:18.535Z,0.70
2023-04-24T12:50:47.472Z,1.50
2023-04-24T12:53:16.074Z,1.10
2023-04-24T12:55:44.225Z,1.17
2023-04-24T12:58:12.234Z,1.15
2023-04-24T13:00:41.064Z,0.90
2023-04-24T13:03:09.260Z,3.78
2023-04-24T13:05:37.398Z,2.03
2023-04-24T13:08:05.611Z,1.17
2023-04-24T13:10:33.681Z,0.75
2023-04-24T13:13:01.895Z,1.20
2023-04-24T13:15:29.835Z,1.33
2023-04-24T13:17:57.993Z,0.90
2023-04-24T13:20:26.109Z,1.02
2023-04-24T13:22:54.267Z,1.20
2023-04-24T13:25:22.861Z,1.00
2023-04-24T13:27:50.840Z,0.95
2023-04-24T13:30:18.942Z,1.10
2023-04-24T13:32:47.129Z,0.90
2023-04-24T13:35:15.119Z,0.98
2023-04-24T13:37:43.101Z,0.80
2023-04-24T13:40:11.761Z,1.00
2023-04-24T13:42:39.792Z,0.95
2023-04-24T13:45:23.416Z,0.80
2023-04-24T13:47:53.236Z,1.00
2023-04-24T13:50:21.607Z,0.95
2023-04-24T13:52:49.732Z,0.80
2023-04-24T13:55:17.798Z,0.98
2023-04-24T13:57:45.752Z,0.90
2023-04-24T14:00:14.165Z,0.80
2023-04-24T14:02:42.481Z,0.93
2023-04-24T14:05:11.958Z,0.82
2023-04-24T14:07:40.070Z,0.73
2023-04-24T14:10:08.366Z,0.77
2023-04-24T14:12:36.543Z,0.80
2023-04-24T14:15:04.829Z,0.90
2023-04-24T14:17:33.408Z,0.73
2023-04-24T14:20:03.020Z,1.30
2023-04-24T14:22:31.128Z,0.80
2023-04-24T14:25:00.156Z,0.80
2023-04-24T14:27:28.604Z,0.93
2023-04-24T14:29:57.249Z,0.82
2023-04-24T14:32:25.349Z,0.70
2023-04-24T14:34:53.458Z,0.90
2023-04-24T14:37:21.480Z,1.02
2023-04-24T14:39:56.207Z,1.25
2023-04-24T14:42:34.586Z,1.00
2023-04-24T14:45:02.725Z,1.10
2023-04-24T14:47:31.610Z,0.68
2023-04-24T14:49:59.692Z,0.82
2023-04-24T14:52:28.067Z,0.70
2023-04-24T14:54:56.059Z,0.70
2023-04-24T14:57:24.171Z,0.85
2023-04-24T14:59:52.189Z,0.80
2023-04-24T15:02:22.244Z,0.73
2023-04-24T15:04:50.850Z,0.82
2023-04-24T15:07:19.270Z,0.90
2023-04-24T15:09:49.374Z,0.85
2023-04-24T15:12:17.732Z,0.98
2023-04-24T15:14:45.759Z,0.93
2023-04-24T15:17:13.731Z,0.93
2023-04-24T15:19:41.898Z,0.75
2023-04-24T15:22:09.895Z,0.90
2023-04-24T15:24:37.926Z,1.00
2023-04-24T15:27:05.905Z,0.88
2023-04-24T15:29:34.081Z,0.70
2023-04-24T15:32:02.225Z,0.80
2023-04-24T15:34:30.238Z,0.90
2023-04-24T15:36:58.224Z,1.00
2023-04-24T15:39:26.755Z,0.60
2023-04-24T15:41:55.687Z,0.70
2023-04-24T15:44:23.996Z,0.90
2023-04-24T15:46:53.565Z,1.77
2023-04-24T15:49:21.819Z,0.80
2023-04-24T15:51:49.768Z,0.93
2023-04-24T15:54:17.998Z,1.37
2023-04-24T15:56:46.709Z,0.68
2023-04-24T15:59:14.841Z,1.05
2023-04-24T16:01:42.942Z,1.00
2023-04-24T16:04:11.141Z,1.00
2023-04-24T16:06:39.391Z,0.95
2023-04-24T16:09:07.789Z,0.88
2023-04-24T16:11:37.893Z,0.90
2023-04-24T16:14:05.929Z,0.90
2023-04-24T16:16:34.315Z,1.10
2023-04-24T16:19:02.755Z,0.80
2023-04-24T16:21:31.032Z,0.90
2023-04-24T16:23:58.977Z,0.90
2023-04-24T16:26:27.789Z,1.10
2023-04-24T16:28:57.264Z,0.70
2023-04-24T16:31:25.370Z,1.02
2023-04-24T16:33:53.327Z,1.20
2023-04-24T16:36:22.151Z,0.73
2023-04-24T16:38:52.945Z,0.98
2023-04-24T16:41:20.932Z,0.90
2023-04-24T16:43:48.947Z,1.10
2023-04-24T16:46:17.033Z,0.90
2023-04-24T16:48:45.094Z,1.10
2023-04-24T16:51:13.059Z,1.00
2023-04-24T16:53:41.066Z,1.17
2023-04-24T16:56:09.123Z,1.02
2023-04-24T16:58:37.299Z,1.00
2023-04-24T17:01:05.534Z,1.15
2023-04-24T17:03:33.757Z,1.23
2023-04-24T17:06:02.459Z,1.42
2023-04-24T17:08:31.329Z,2.28
2023-04-24T17:10:59.317Z,1.80
2023-04-24T17:13:27.535Z,3.65
2023-04-24T17:15:55.610Z,1.58
2023-04-24T17:18:23.683Z,1.17
2023-04-24T17:20:51.762Z,1.25
2023-04-24T17:23:19.758Z,1.15
2023-04-24T17:25:47.828Z,1.10
2023-04-24T17:28:27.188Z,1.42
2023-04-24T17:30:56.998Z,1.25
2023-04-24T17:33:28.785Z,2.83
2023-04-24T17:35:57.331Z,1.20
2023-04-24T17:38:25.860Z,1.80
2023-04-24T17:40:54.519Z,0.90
2023-04-24T17:43:22.508Z,2.65
2023-04-24T17:45:54.754Z,1.35
2023-04-24T17:48:23.646Z,1.30
2023-04-24T17:50:51.736Z,2.33
2023-04-24T17:53:24.125Z,1.40
2023-04-24T17:55:52.173Z,1.10
2023-04-24T17:58:20.400Z,1.75
2023-04-24T18:00:48.492Z,3.50
2023-04-24T18:03:17.051Z,2.90
2023-04-24T18:05:45.179Z,2.40
2023-04-24T18:08:13.193Z,1.52
2023-04-24T18:10:41.823Z,2.72
2023-04-24T18:13:11.276Z,2.25
2023-04-24T18:15:43.654Z,1.70
2023-04-24T18:18:12.542Z,1.87
2023-04-24T18:20:40.743Z,1.50
2023-04-24T18:23:08.754Z,1.30
2023-04-24T18:25:36.835Z,2.63
2023-04-24T18:28:04.924Z,1.77
2023-04-24T18:30:33.905Z,1.03
2023-04-24T18:33:02.052Z,1.13
2023-04-24T18:35:30.135Z,1.10
2023-04-24T18:37:58.227Z,1.10
2023-04-24T18:40:26.250Z,1.40
2023-04-24T18:42:54.286Z,1.40
2023-04-24T18:45:22.631Z,1.10
2023-04-24T18:47:51.512Z,1.80
2023-04-24T18:50:20.758Z,1.30
2023-04-24T18:52:48.806Z,1.70
2023-04-24T18:55:16.789Z,1.40
2023-04-24T18:57:44.792Z,1.60
2023-04-24T19:00:13.324Z,1.40
2023-04-24T19:02:41.492Z,1.47
2023-04-24T19:05:11.727Z,3.30
2023-04-24T19:07:39.773Z,2.17
2023-04-24T19:10:08.524Z,1.70
2023-04-24T19:12:36.510Z,1.13
2023-04-24T19:15:04.725Z,1.50
2023-04-24T19:17:33.320Z,1.20
2023-04-24T19:20:01.474Z,1.40
2023-04-24T19:22:30.999Z,1.00
2023-04-24T19:25:00.102Z,1.30
2023-04-24T19:27:28.139Z,1.30
2023-04-24T19:29:56.269Z,1.20
2023-04-24T19:32:24.409Z,1.67
2023-04-24T19:34:52.591Z,1.33
2023-04-24T19:37:20.680Z,1.70
2023-04-24T19:39:48.758Z,1.63
2023-04-24T19:42:18.185Z,1.50
2023-04-24T19:44:49.361Z,1.30
2023-04-24T19:47:17.416Z,1.50
2023-04-24T19:49:45.513Z,1.80
2023-04-24T19:52:13.483Z,1.80
2023-04-24T19:54:41.896Z,1.67
2023-04-24T19:57:09.945Z,1.60
2023-04-24T19:59:38.118Z,1.90
2023-04-24T20:02:06.187Z,1.57
2023-04-24T20:04:34.350Z,1.73
2023-04-24T20:07:02.530Z,1.90
2023-04-24T20:09:32.451Z,1.67
2023-04-24T20:12:01.836Z,1.40
2023-04-24T20:14:29.872Z,1.67
2023-04-24T20:16:57.875Z,1.80
2023-04-24T20:19:25.934Z,1.23
2023-04-24T20:21:54.149Z,1.60
2023-04-24T20:24:22.254Z,1.50
2023-04-24T20:26:50.422Z,1.40
2023-04-24T20:29:18.509Z,1.40
2023-04-24T20:31:46.636Z,1.23
2023-04-24T20:34:14.760Z,1.50
2023-04-24T20:36:46.885Z,1.80
2023-04-24T20:39:16.985Z,1.50
2023-04-24T20:41:45.556Z,1.33
2023-04-24T20:44:13.640Z,1.30
2023-04-24T20:46:41.863Z,1.50
2023-04-24T20:49:09.909Z,1.30
2023-04-24T20:51:38.396Z,1.83
2023-04-24T20:54:07.272Z,1.50
2023-04-24T20:56:35.445Z,1.73
2023-04-24T20:59:03.520Z,1.60
2023-04-24T21:01:31.710Z,1.53
2023-04-24T21:03:59.861Z,1.57
2023-04-24T21:06:27.968Z,1.40
2023-04-24T21:08:56.012Z,1.40
2023-04-24T21:11:23.974Z,1.67
2023-04-24T21:13:52.131Z,1.50
2023-04-24T21:16:20.172Z,1.43
2023-04-24T21:18:48.376Z,1.70
2023-04-24T21:21:16.426Z,1.80
2023-04-24T21:23:44.536Z,2.23
2023-04-24T21:26:12.553Z,1.60
2023-04-24T21:28:40.821Z,1.70
2023-04-24T21:31:09.171Z,1.53
2023-04-24T21:33:37.317Z,1.60
2023-04-24T21:36:05.647Z,1.90
2023-04-24T21:38:34.026Z,1.60
2023-04-24T21:41:02.208Z,1.70
2023-04-24T21:43:49.829Z,1.93
2023-04-24T21:46:18.374Z,1.47
2023-04-24T21:48:46.418Z,1.80
2023-04-24T21:51:14.569Z,1.97
2023-04-24T21:53:42.887Z,1.70
2023-04-24T21:56:10.834Z,1.80
2023-04-24T21:58:38.914Z,1.73
2023-04-24T22:01:07.274Z,1.43
2023-04-24T22:03:35.475Z,1.27
2023-04-24T22:06:03.772Z,1.70
2023-04-24T22:08:31.732Z,1.80
2023-04-24T22:10:59.893Z,1.40
2023-04-24T22:13:28.643Z,1.37
2023-04-24T22:15:56.754Z,1.33
2023-04-24T22:18:33.321Z,1.50
2023-04-24T22:21:08.450Z,1.60
2023-04-24T22:23:36.526Z,1.63
2023-04-24T22:26:04.627Z,1.50
2023-04-24T22:28:32.755Z,1.43
2023-04-24T22:31:00.760Z,1.57
2023-04-24T22:33:28.666Z,1.77
2023-04-24T22:35:56.910Z,1.60
2023-04-24T22:38:25.065Z,1.60
2023-04-24T22:40:53.053Z,1.30
2023-04-24T22:43:21.305Z,1.80
2023-04-24T22:45:49.293Z,1.50
2023-04-24T22:48:17.747Z,1.47
2023-04-24T22:50:45.670Z,1.60
2023-04-24T22:53:13.648Z,1.40
2023-04-24T22:55:41.666Z,1.70
2023-04-24T22:58:09.584Z,1.67
2023-04-24T23:00:37.727Z,1.60
2023-04-24T23:03:05.982Z,1.50
2023-04-24T23:05:34.034Z,1.80
2023-04-24T23:08:01.962Z,1.80
2023-04-24T23:10:30.027Z,1.60
2023-04-24T23:12:58.032Z,1.80
2023-04-24T23:15:26.151Z,1.57
2023-04-24T23:17:54.150Z,1.33
2023-04-24T23:20:22.884Z,1.37
2023-04-24T23:22:50.902Z,1.57
2023-04-24T23:25:18.960Z,1.60
2023-04-24T23:27:46.988Z,1.50
2023-04-24T23:30:15.016Z,1.70
2023-04-24T23:32:45.367Z,1.37
2023-04-24T23:35:14.010Z,1.40
2023-04-24T23:37:42.118Z,1.30
2023-04-24T23:40:13.541Z,1.83
2023-04-24T23:42:41.562Z,1.70
2023-04-24T23:45:11.880Z,1.63
2023-04-24T23:47:39.872Z,1.47
2023-04-24T23:50:08.096Z,1.40
2023-04-24T23:52:36.877Z,1.40
2023-04-24T23:55:06.090Z,1.67
2023-04-24T23:57:34.066Z,1.53
